Beaver Dam, WI

6:07 PM CDT on September 20, 2014 (GMT -0500)
2 miles North of | Change Station
CLOSE
Current Station
Personal Weather Station
Location: Beaver Dam, WI
Elevation: 889 ft
Nearby Weather Stations

Elev 889 ft 43.50 °N, 88.86 °W | Updated 4 minutes ago

Clear
Clear
71.3 °F
Feels Like 72 °F
N
1.0
Wind Variable Wind from SW
Gusts 4.0 mph

Today
High -- | Low -- °F
--% Chance of Precip.
Yesterday
High -- | Low -- °F
Precip. -- in
6:40 AM 6:56 PM
Waning Crescent, 10% visible
Pressure 29.75 in
Visibility 10.0 miles
Clouds Clear
Heat Index 72 °F
Dew Point 65 °F
Humidity 80%
Rainfall 0.11 in
Snow Depth Not available.
UV 1 out of 12
Pollen .60 out of 12
Air Quality Not available.
Flu Activity Not available.
METAR KUNU 202255Z AUTO 24009KT 10SM CLR 22/16 A2975 RMK AO2 T02160164

More Conditions Fewer Conditions

Pressure 29.75 in
Visibility 10.0 miles
Clouds Clear
Heat Index 72 °F
Dew Point 65 °F
Humidity 80%
Rainfall 0.11 in
Snow Depth Not available.
UV 1 out of 12
Pollen .60 out of 12
Air Quality Not available.
Flu Activity Not available.
METAR KUNU 202255Z AUTO 24009KT 10SM CLR 22/16 A2975 RMK AO2 T02160164

More Conditions Fewer Conditions

10-Day Weather Forecast

Almanac

Astronomy

Sep. 20, 2014 Rise Set
Actual Time 6:40 AM CDT 6:56 PM CDT
Civil Twilight 6:11 AM CDT 7:24 PM CDT
Nautical Twilight 5:38 AM CDT 7:58 PM CDT
Astronomical Twilight 5:03 AM CDT 8:32 PM CDT
Moon 3:14 AM CDT 5:03 PM CDT
Length of Visible Light 13h 13m
Length of Day
12h 15m
Tomorrow will be 2m 57s shorter.
Waning Crescent, 10% of the Moon is Illuminated
Today
Waning Crescent
Sep 24
New
Oct 1
First Quarter
Oct 8
Full
Oct 15
Last Quarter

Today's Extremes

State Highs State Lows

Community

WunderPhotos

Upload Photos

1,754,972 photos uploaded!

WunderBlogs® & News

Nearby

Snow Depth

Station Depth Elevation
No new snow has been reported.

Earthquake Activity

City Distance Mag. Time & Date
No recent earthquake activity has been reported nearby.
Minimum magnitude displayed is 2.5.

Coastal Water Temperatures

Place Temperature
No Stations Reporting

Nearby Weather Stations